1NC3 weather

Fletcher's Airport
Elizabeth City, North Carolina, United States

Public forecast

Using degrees Fahrenheit for public forecast. Weather courtesy of forecast.io.

METAR (pilot weather report)

Closest report is Elizabeth City Regional Airport & Coast Guard Air Station, 5.0 nm (9.2 km) NNW. Retrieved 2019/02/15 20:54 UTC (30 minutes ago):

KECG 152054Z 22014KT 10SM CLR 21/04 A2975 RMK AO2 SLP075 T02110039 56024

TAF (pilot weather forecast)

Closest forecast is Elizabeth City Regional Airport & Coast Guard Air Station, 5.0 nm (9.2 km) NNW. Retrieved 2019/02/15 18:00 UTC (3 hours ago):

TAF TAF COR KECG 151754Z 1518/1618 21015G23KT P6SM SCT150 FM160000 21007KT P6SM VCSH OVC040 FM160600 31006KT 6SM -RA OVC035 FM161200 04011KT 6SM RA OVC009